Sugarloaf, California
Current Conditions -  °F | °C
As of 2:55 PM on Tuesday 27 Jan 2015 (Local Time) from KL35 Reporting Station
Clear Clear  
Wind Chill:   Ceiling: Unl
Heat Index:   Visibility: 10mi
Dew Point: -2°   Wind: 7mph
Humidity: 50%   Direction: 260°W
Pressure: 30.24"   Gusts: NA
Location:  34.24°N, 116.82°W
Report Text: KL35 272255Z AUTO 26006KT 10SM CLR 08/M02 A3024 RMK AO2
Loading
Personal Weather Stations






























Interactive Weather Map New forecast layout! Learn more

10-Day Weather Forecast

Advertisements
Track Severe Weather on mobile